Terminal Aerodrome Forecast
Issued by NWS Chicago, IL

Home | Current Version | Previous Version | Graphics & Text | Print | Product List | Glossary On
Versions: 1 2 3 4 5 6 7 8 9 10 11 12 13 14 15 16 17 18 19 20 21 22 23 24 25 26 27 28 29 30 31 32 33 34 35 36 37
000
FTUS43 KLOT 211100
TAFRFD
TAF
KRFD 211113Z 2112/2212 15004KT 4SM TSRA BR SCT025CB OVC060
      TEMPO 2112/2115 1SM -TSRA BKN012CB
     FM211500 15006KT P6SM VCTS SCT035 BKN050CB
     FM211700 20011G18KT P6SM SCT030 BKN100
     FM220000 18005KT P6SM SCT040 BKN100
     FM220200 22006KT P6SM VCSH SCT050 BKN100 PROB30 2203/2209 4SM
      -TSRA BR BKN050CB
     FM221000 22007KT 4SM BR BKN040=

USA.gov is the U.S. government's official web portal to all federal, state and local government web resources and services.